EGPI

Islay Airport

Port Ellen, United Kingdom
METAR EGPI 160520Z AUTO 23019KT 9999 -RA SCT034/// 06/04 Q0993
Observed Flight Rules
Dec-16 @ 05:20 UTC (36 minutes ago) Visual Flight Rules
Wind Visibility Clouds Conditions
230° at 19 knots 10,000+ meters
  • Scattered at 3,400' AGL
  • Light Rain
Temperatures Readings
Current 6°C / 43°F
Dewpoint 4°C / 39°F
Humidity 87%
Altimeter 29.32" Hg
Pressure 993 hPa
Elevation 18
METAR EGPI 160520Z AUTO 23019KT 9999 -RA SCT034/// 06/04 Q0993
Observed Flight Rules
Dec-16 @ 05:20 UTC
(36 minutes ago)
VFR
Wind Visibility
230° at 19 knots 10,000+ meters
Clouds
  • Scattered at 3,400' AGL
Conditions
  • Light Rain
Temperature Dewpoint
6°C / 43°F 4°C / 39°F
Humidity Altimeter Pressure
87% 29.32" Hg 993 hPa